Time;durP1;ratioP1;P1;durP2;ratioP2;P2;SDS_P1;SDS_P2;PMS_P1;PMS_P2;Temp;Humidity;BMP_temperature;BMP_pressure;BME280_temperature;BME280_humidity;BME280_pressure;Samples;Min_cycle;Max_cycle;Signal;HPM_P1;HPM_P2
2021/03/29 00:18:11;;;;;;;6.80;3.33;;;10.20;69.60;;;;;;5539940;23;20133;-96
2021/03/29 00:20:41;;;;;;;4.95;3.20;;;10.20;69.60;;;;;;5000576;28;20054;-96
2021/03/29 00:28:20;;;;;;;6.68;3.10;;;10.20;69.40;;;;;;5376249;23;20066;-96
2021/03/29 00:30:47;;;;;;;10.15;4.38;;;10.20;69.40;;;;;;5006467;28;20034;-96
2021/03/29 00:41:07;;;;;;;7.03;3.25;;;10.10;69.80;;;;;;5240077;23;20042;-96
2021/03/29 00:43:35;;;;;;;9.43;3.70;;;10.00;69.50;;;;;;4992053;28;20017;-96
2021/03/29 00:46:07;;;;;;;8.82;4.10;;;10.20;69.60;;;;;;4992009;28;20030;-96
2021/03/29 00:48:34;;;;;;;6.80;3.70;;;10.00;69.60;;;;;;4994717;28;20070;-96
2021/03/29 02:44:58;;;;;;;5.90;2.92;;;10.40;68.20;;;;;;5813610;23;20061;-96
2021/03/29 02:48:11;;;;;;;4.22;1.90;;;10.50;68.30;;;;;;5039548;27;20487;-96
2021/03/29 02:53:17;;;;;;;6.43;2.78;;;10.30;68.20;;;;;;5376379;23;20061;-96
2021/03/29 04:33:59;;;;;;;6.95;4.20;;;9.90;69.40;;;;;;5039901;28;20046;-96
2021/03/29 04:36:24;;;;;;;9.05;4.30;;;9.90;69.40;;;;;;5028881;28;20030;-96
2021/03/29 04:38:50;;;;;;;6.82;3.70;;;9.90;70.00;;;;;;5030724;28;20369;-96
2021/03/29 04:41:16;;;;;;;8.20;3.72;;;9.90;69.40;;;;;;5030844;28;20025;-96
2021/03/29 04:43:42;;;;;;;7.70;4.00;;;9.90;69.50;;;;;;5024050;28;20412;-96
2021/03/29 04:46:07;;;;;;;8.38;3.88;;;9.90;69.50;;;;;;5049313;28;20044;-96
2021/03/29 04:48:33;;;;;;;8.13;3.78;;;9.90;69.50;;;;;;5031875;28;20056;-96
2021/03/29 04:51:06;;;;;;;5.55;3.20;;;9.90;69.50;;;;;;5233323;22;20059;-96
2021/03/29 04:53:37;;;;;;;5.13;2.65;;;9.90;69.50;;;;;;5091965;22;20049;-96
2021/03/29 04:56:03;;;;;;;7.95;3.42;;;9.90;69.40;;;;;;5022952;28;20277;-96
2021/03/29 04:58:28;;;;;;;5.53;2.90;;;9.90;69.40;;;;;;5036352;28;20104;-94
2021/03/29 05:00:54;;;;;;;6.38;2.60;;;9.90;69.40;;;;;;5029882;28;20369;-94
2021/03/29 05:03:20;;;;;;;5.35;2.65;;;10.00;69.40;;;;;;5045308;28;20367;-93
2021/03/29 05:05:45;;;;;;;6.70;3.40;;;10.00;69.40;;;;;;5053388;28;20447;-94
2021/03/29 05:08:11;;;;;;;5.05;2.67;;;10.00;69.30;;;;;;5037118;28;20025;-94
2021/03/29 05:10:40;;;;;;;4.78;2.50;;;10.00;69.30;;;;;;5017027;28;20037;-96
2021/03/29 05:13:06;;;;;;;6.03;2.53;;;10.00;69.30;;;;;;5041880;28;20017;-96
2021/03/29 05:15:32;;;;;;;5.50;2.72;;;10.00;69.20;;;;;;5054073;28;20021;-96
2021/03/29 05:17:58;;;;;;;8.75;2.83;;;10.00;69.30;;;;;;5041786;28;20120;-96
2021/03/29 05:20:24;;;;;;;3.70;1.95;;;10.00;70.00;;;;;;5034798;28;20018;-96
2021/03/29 05:22:49;;;;;;;3.88;2.10;;;10.00;69.30;;;;;;5036217;28;20031;-96
2021/03/29 05:25:15;;;;;;;5.40;2.97;;;10.00;69.30;;;;;;5035515;28;20017;-95
2021/03/29 05:27:41;;;;;;;5.70;2.70;;;10.00;69.40;;;;;;5033344;28;20037;-95
2021/03/29 05:30:08;;;;;;;6.63;3.10;;;10.00;69.40;;;;;;5034296;28;20022;-94
2021/03/29 05:32:33;;;;;;;10.30;4.00;;;9.90;70.10;;;;;;5027023;28;20022;-91
2021/03/29 05:35:02;;;;;;;6.57;3.08;;;10.00;69.70;;;;;;5019641;28;20278;-91
2021/03/29 05:37:29;;;;;;;6.25;2.42;;;9.90;69.60;;;;;;5037668;28;20066;-93
2021/03/29 05:39:57;;;;;;;5.10;2.28;;;10.00;69.60;;;;;;5039934;28;20032;-94
2021/03/29 05:42:25;;;;;;;5.60;2.38;;;10.00;69.50;;;;;;5035280;28;20021;-96
2021/03/29 05:45:07;;;;;;;6.03;2.88;;;10.00;69.40;;;;;;5027621;28;20068;-94
2021/03/29 05:47:38;;;;;;;6.05;2.83;;;10.10;69.50;;;;;;5027281;28;20168;-93
2021/03/29 05:50:07;;;;;;;4.28;2.13;;;10.10;69.40;;;;;;5025464;28;20013;-96
2021/03/29 05:52:37;;;;;;;3.83;1.95;;;10.10;69.30;;;;;;5041864;28;20056;-96
2021/03/29 05:55:04;;;;;;;6.00;2.70;;;10.20;69.20;;;;;;5044590;28;20082;-96
2021/03/29 05:57:42;;;;;;;7.10;2.90;;;10.30;69.10;;;;;;5027950;28;20014;-96
2021/03/29 06:00:33;;;;;;;4.80;1.80;;;10.50;69.80;;;;;;5037716;28;20021;-96
2021/03/29 06:08:12;;;;;;;6.00;3.05;;;13.30;62.00;;;;;;6053210;22;21062;-96
2021/03/29 06:10:41;;;;;;;5.60;2.88;;;13.90;60.70;;;;;;5044312;28;20033;-96
2021/03/29 06:16:17;;;;;;;7.15;2.67;;;14.80;58.40;;;;;;5548595;22;20037;-96
2021/03/29 06:23:59;;;;;;;4.82;2.40;;;14.70;56.30;;;;;;5353188;22;20038;-96
2021/03/29 06:26:30;;;;;;;6.68;2.80;;;14.70;56.70;;;;;;5268650;23;20046;-96
2021/03/29 06:28:57;;;;;;;6.07;2.42;;;14.40;56.80;;;;;;5014805;28;20538;-95
2021/03/29 06:31:41;;;;;;;5.88;2.35;;;13.90;57.80;;;;;;5031506;28;20021;-96
2021/03/29 06:34:09;;;;;;;4.32;2.08;;;13.60;58.90;;;;;;5032286;28;20118;-96
2021/03/29 06:37:06;;;;;;;6.03;2.65;;;13.40;59.50;;;;;;5032966;28;20045;-96
2021/03/29 06:39:39;;;;;;;5.70;2.40;;;12.90;60.10;;;;;;5011315;28;20038;-96
2021/03/29 06:42:31;;;;;;;7.32;2.50;;;12.50;61.30;;;;;;5144039;22;20049;-96
2021/03/29 06:45:13;;;;;;;7.00;2.60;;;12.10;62.30;;;;;;5028075;28;20109;-93
2021/03/29 06:47:39;;;;;;;4.13;2.05;;;12.00;62.90;;;;;;5025629;28;20038;-96
2021/03/29 06:50:06;;;;;;;5.53;2.42;;;11.80;63.50;;;;;;5042510;28;20104;-96
2021/03/29 06:52:34;;;;;;;5.57;2.33;;;11.70;63.90;;;;;;5033959;28;20022;-96
2021/03/29 06:55:24;;;;;;;5.80;2.30;;;11.60;64.20;;;;;;5040365;28;20116;-96
2021/03/29 06:58:10;;;;;;;6.20;2.85;;;11.50;64.50;;;;;;5030663;28;20025;-96
2021/03/29 07:00:39;;;;;;;4.65;2.22;;;11.50;64.60;;;;;;5032897;28;20093;-94
2021/03/29 07:03:06;;;;;;;5.05;2.15;;;11.50;64.80;;;;;;5035735;28;20135;-93
2021/03/29 07:05:33;;;;;;;3.03;2.05;;;11.50;64.80;;;;;;5013261;28;20046;-89
2021/03/29 07:08:07;;;;;;;5.40;2.72;;;11.60;64.70;;;;;;5025569;28;20046;-91
2021/03/29 07:10:33;;;;;;;6.97;2.85;;;11.70;64.70;;;;;;5025661;28;20033;-94
2021/03/29 07:12:58;;;;;;;5.00;2.30;;;11.70;64.50;;;;;;5026610;28;20013;-94
2021/03/29 07:15:25;;;;;;;6.10;2.65;;;11.70;64.50;;;;;;5029648;28;20021;-95
2021/03/29 07:17:52;;;;;;;4.38;2.20;;;11.70;64.60;;;;;;5031447;28;20056;-94
2021/03/29 07:20:29;;;;;;;3.60;2.08;;;11.90;64.60;;;;;;5034017;28;20021;-95
2021/03/29 07:22:56;;;;;;;6.28;2.40;;;12.00;64.40;;;;;;5044108;28;20013;-96
2021/03/29 07:25:28;;;;;;;7.75;2.90;;;12.10;64.20;;;;;;5045644;28;20071;-95
2021/03/29 07:27:58;;;;;;;5.90;3.13;;;12.10;64.10;;;;;;5048108;28;20038;-96
2021/03/29 07:31:01;;;;;;;4.80;2.50;;;12.20;64.10;;;;;;5027186;28;20120;-96
2021/03/29 07:33:45;;;;;;;;;;;12.20;63.90;;;;;;4959492;28;20114;-95
2021/03/29 07:36:11;;;;;;;6.85;2.80;;;12.30;64.00;;;;;;5029244;28;19905;-93
2021/03/29 07:38:56;;;;;;;6.10;2.72;;;12.30;63.90;;;;;;5035851;28;20028;-95
2021/03/29 07:41:21;;;;;;;5.70;2.72;;;12.30;64.00;;;;;;5041815;28;20044;-94
2021/03/29 07:44:10;;;;;;;6.15;2.70;;;12.30;63.80;;;;;;5038974;28;20037;-95
2021/03/29 07:46:40;;;;;;;5.80;2.60;;;12.40;64.60;;;;;;5033063;28;20037;-95
2021/03/29 07:49:58;;;;;;;7.43;3.00;;;12.50;63.80;;;;;;5025005;28;20041;-95
2021/03/29 07:52:25;;;;;;;6.50;3.10;;;12.50;63.50;;;;;;4994360;28;20042;-92
2021/03/29 07:54:52;;;;;;;7.50;3.05;;;12.50;63.60;;;;;;5046707;28;20481;-92
2021/03/29 07:57:44;;;;;;;6.88;3.05;;;12.50;63.60;;;;;;5047229;28;20017;-93
2021/03/29 08:00:25;;;;;;;6.07;3.08;;;12.60;63.70;;;;;;5034378;28;20135;-94
2021/03/29 08:03:21;;;;;;;5.32;2.78;;;12.60;63.80;;;;;;5017736;28;20564;-93
2021/03/29 08:05:52;;;;;;;4.95;2.30;;;12.70;63.70;;;;;;5031346;28;20029;-93
2021/03/29 08:08:41;;;;;;;5.85;2.38;;;12.80;63.70;;;;;;5029837;28;20017;-93
2021/03/29 08:11:09;;;;;;;7.07;3.25;;;12.90;63.60;;;;;;5035207;28;20038;-93
2021/03/29 08:13:48;;;;;;;8.30;3.13;;;12.90;63.40;;;;;;5050294;28;20429;-93
2021/03/29 08:16:15;;;;;;;6.75;3.03;;;12.90;63.30;;;;;;5023227;28;20041;-96
2021/03/29 08:19:15;;;;;;;5.43;2.67;;;12.90;63.40;;;;;;5042600;28;20029;-96
2021/03/29 08:22:08;;;;;;;6.82;3.00;;;13.00;63.50;;;;;;5031659;28;20053;-94
2021/03/29 08:24:39;;;;;;;4.47;2.40;;;13.00;63.20;;;;;;5029364;28;20029;-93
2021/03/29 08:27:29;;;;;;;5.90;2.92;;;13.10;63.40;;;;;;5034774;28;20056;-94
2021/03/29 08:30:08;;;;;;;6.28;3.00;;;13.10;63.30;;;;;;5025138;28;20042;-93
2021/03/29 08:32:47;;;;;;;7.30;2.65;;;13.10;63.20;;;;;;5028470;28;20029;-91
2021/03/29 08:35:21;;;;;;;7.68;2.95;;;13.20;63.10;;;;;;5037959;28;20021;-92
2021/03/29 08:37:48;;;;;;;5.55;2.95;;;13.30;63.30;;;;;;5029964;28;20674;-93
2021/03/29 08:40:22;;;;;;;4.53;2.58;;;13.30;63.00;;;;;;5029106;28;20096;-93
2021/03/29 08:42:51;;;;;;;7.18;3.40;;;13.40;62.90;;;;;;5034952;28;20617;-93
2021/03/29 08:45:27;;;;;;;8.15;3.00;;;13.40;62.90;;;;;;5038172;28;20384;-91
2021/03/29 08:48:04;;;;;;;6.68;2.70;;;13.40;62.80;;;;;;5032285;28;20037;-93
2021/03/29 08:50:36;;;;;;;4.50;2.47;;;13.50;62.80;;;;;;5037310;28;20029;-93
2021/03/29 08:53:04;;;;;;;7.43;2.55;;;13.60;62.80;;;;;;5043165;28;20510;-94
2021/03/29 08:55:39;;;;;;;4.60;1.95;;;13.70;62.50;;;;;;5035053;28;20026;-95
2021/03/29 08:58:06;;;;;;;5.30;2.45;;;13.70;62.30;;;;;;5031288;28;20071;-94
2021/03/29 09:00:36;;;;;;;5.30;2.30;;;13.80;62.20;;;;;;5035461;28;20407;-93
2021/03/29 09:03:02;;;;;;;5.75;2.42;;;13.80;62.10;;;;;;5028868;28;20064;-95
2021/03/29 09:05:28;;;;;;;4.60;2.42;;;13.80;62.10;;;;;;5025053;28;20014;-95
2021/03/29 09:07:54;;;;;;;6.60;2.42;;;13.90;62.20;;;;;;5032685;28;20662;-91
2021/03/29 09:10:36;;;;;;;6.03;2.92;;;14.00;61.90;;;;;;5043079;28;20025;-91
2021/03/29 09:13:01;;;;;;;3.70;2.40;;;14.10;61.20;;;;;;5016636;28;20029;-92
2021/03/29 09:15:36;;;;;;;4.65;2.45;;;14.20;60.90;;;;;;5033016;28;20026;-93
2021/03/29 09:18:03;;;;;;;5.78;2.67;;;14.20;60.60;;;;;;5023575;28;20026;-94
2021/03/29 09:20:32;;;;;;;8.15;3.13;;;14.30;60.20;;;;;;5031034;28;20527;-92
2021/03/29 09:22:58;;;;;;;6.18;2.70;;;14.30;59.90;;;;;;5029243;28;20025;-92
2021/03/29 09:25:34;;;;;;;7.90;3.03;;;14.40;59.80;;;;;;5031081;28;20033;-92
2021/03/29 09:28:25;;;;;;;5.80;2.80;;;14.50;59.20;;;;;;5023034;28;20120;-93
2021/03/29 09:30:53;;;;;;;5.60;2.95;;;14.50;59.20;;;;;;5026881;28;20044;-93
2021/03/29 09:33:20;;;;;;;12.32;7.10;;;14.60;58.90;;;;;;5033260;28;20025;-89
2021/03/29 09:35:47;;;;;;;6.10;3.60;;;14.60;58.90;;;;;;5026691;28;20464;-92
2021/03/29 09:38:14;;;;;;;5.13;2.80;;;14.70;59.00;;;;;;5045757;28;20030;-92
2021/03/29 09:40:40;;;;;;;6.18;3.40;;;14.80;58.80;;;;;;5030686;28;20028;-91
2021/03/29 09:43:17;;;;;;;7.00;2.90;;;14.80;57.60;;;;;;5024696;28;20064;-92
2021/03/29 09:45:43;;;;;;;8.27;2.65;;;14.90;56.90;;;;;;5037649;28;20028;-94
2021/03/29 09:48:10;;;;;;;7.88;3.25;;;14.90;56.50;;;;;;5046298;28;20029;-92
2021/03/29 09:50:39;;;;;;;5.80;2.80;;;14.90;56.10;;;;;;5042727;28;20032;-92
2021/03/29 09:53:13;;;;;;;5.28;2.50;;;14.90;55.70;;;;;;5041959;28;20029;-92
2021/03/29 09:55:43;;;;;;;6.72;2.88;;;14.90;56.00;;;;;;5034049;28;20040;-92
2021/03/29 09:58:23;;;;;;;7.03;2.55;;;15.00;55.90;;;;;;5035393;28;20520;-88
2021/03/29 10:00:51;;;;;;;7.05;2.65;;;15.00;55.80;;;;;;5031238;28;20036;-91
2021/03/29 10:03:18;;;;;;;5.25;2.60;;;15.10;55.60;;;;;;5051009;28;20024;-87
2021/03/29 10:05:45;;;;;;;6.15;2.55;;;15.20;55.50;;;;;;5052266;28;20094;-88
2021/03/29 10:08:13;;;;;;;5.47;2.20;;;15.20;55.10;;;;;;5043989;28;20022;-87
2021/03/29 10:10:39;;;;;;;4.30;2.22;;;15.30;55.00;;;;;;5056897;28;20043;-87
2021/03/29 10:13:12;;;;;;;5.93;2.78;;;15.30;54.90;;;;;;5034896;28;20010;-89
2021/03/29 10:15:41;;;;;;;5.13;2.50;;;15.40;54.70;;;;;;5056420;28;20483;-87
2021/03/29 10:18:12;;;;;;;4.97;2.45;;;15.40;54.20;;;;;;5052983;28;20111;-89
2021/03/29 10:20:41;;;;;;;8.57;3.20;;;15.50;53.70;;;;;;5034440;28;20049;-89
2021/03/29 10:23:30;;;;;;;3.53;2.40;;;15.60;53.50;;;;;;5033428;28;20034;-90
2021/03/29 10:26:30;;;;;;;5.90;2.60;;;15.60;53.20;;;;;;5029878;28;20033;-92
2021/03/29 10:29:05;;;;;;;4.53;2.70;;;15.60;53.20;;;;;;5048614;28;20103;-87
2021/03/29 10:31:33;;;;;;;7.30;2.63;;;15.70;53.00;;;;;;5053999;28;20022;-89
2021/03/29 10:34:00;;;;;;;4.32;2.40;;;15.80;52.80;;;;;;5061268;28;20112;-89
2021/03/29 10:36:27;;;;;;;5.60;2.30;;;15.80;52.40;;;;;;5046258;28;20093;-89
2021/03/29 10:38:54;;;;;;;4.75;2.50;;;15.90;52.70;;;;;;5042251;28;20033;-91
2021/03/29 10:41:20;;;;;;;5.90;2.42;;;16.00;52.60;;;;;;5031394;28;20057;-91
2021/03/29 10:43:46;;;;;;;7.95;3.50;;;16.10;52.40;;;;;;5034152;28;20026;-92
2021/03/29 10:46:12;;;;;;;6.25;3.05;;;16.20;51.80;;;;;;5023130;28;20040;-90
2021/03/29 10:48:38;;;;;;;6.68;3.22;;;16.20;51.60;;;;;;5033553;28;20022;-90
2021/03/29 10:51:05;;;;;;;4.15;2.30;;;16.20;51.20;;;;;;5030039;28;20045;-90
2021/03/29 10:53:31;;;;;;;5.72;2.63;;;16.30;51.50;;;;;;5021406;28;20030;-90
2021/03/29 10:55:57;;;;;;;5.75;2.70;;;16.30;51.40;;;;;;5017611;28;20018;-91
2021/03/29 10:58:22;;;;;;;7.85;2.83;;;16.40;51.10;;;;;;5028483;28;20067;-90
2021/03/29 11:00:48;;;;;;;5.15;2.85;;;16.50;50.60;;;;;;5031182;28;20030;-91
2021/03/29 11:03:14;;;;;;;5.07;2.60;;;16.50;50.30;;;;;;5028780;28;20068;-90
2021/03/29 11:05:40;;;;;;;7.15;3.13;;;16.50;50.30;;;;;;5030553;28;20014;-89
2021/03/29 11:08:05;;;;;;;6.57;2.65;;;16.60;49.60;;;;;;5019900;28;20037;-93
2021/03/29 11:10:33;;;;;;;3.97;2.30;;;16.70;49.40;;;;;;5034883;28;20014;-94
2021/03/29 11:13:04;;;;;;;6.47;2.60;;;16.70;49.10;;;;;;5036238;28;20079;-96
2021/03/29 11:15:42;;;;;;;5.50;2.65;;;16.80;49.10;;;;;;5040131;28;20075;-96
2021/03/29 11:18:11;;;;;;;4.15;2.47;;;16.80;48.80;;;;;;5028641;28;20601;-93
2021/03/29 11:20:37;;;;;;;6.07;2.63;;;16.90;49.10;;;;;;5034787;28;20025;-95
2021/03/29 11:23:17;;;;;;;5.30;2.65;;;17.00;48.60;;;;;;5037515;28;20030;-93
2021/03/29 11:25:43;;;;;;;6.07;2.88;;;17.10;48.70;;;;;;5031907;28;20029;-94
2021/03/29 11:28:10;;;;;;;7.38;3.08;;;17.20;48.30;;;;;;5026332;28;20040;-95
2021/03/29 11:30:38;;;;;;;4.43;2.60;;;17.30;48.20;;;;;;5022223;28;20022;-93
2021/03/29 11:33:05;;;;;;;6.30;2.60;;;17.40;48.30;;;;;;5034600;28;20057;-95
2021/03/29 11:35:30;;;;;;;4.78;2.55;;;17.50;47.60;;;;;;5030420;28;20025;-92
2021/03/29 11:37:59;;;;;;;5.88;2.40;;;17.60;46.80;;;;;;5057306;28;20388;-94
2021/03/29 11:40:25;;;;;;;7.57;2.92;;;17.60;46.30;;;;;;5043236;28;20080;-94
2021/03/29 11:42:51;;;;;;;4.95;2.30;;;17.70;45.60;;;;;;5023650;28;20076;-94
2021/03/29 11:45:17;;;;;;;4.50;2.17;;;17.80;45.50;;;;;;5032467;28;20164;-96
2021/03/29 11:47:47;;;;;;;5.20;2.42;;;17.90;45.20;;;;;;5037642;28;20425;-94
2021/03/29 11:50:14;;;;;;;3.13;2.00;;;18.00;44.80;;;;;;5033135;28;20136;-95
2021/03/29 11:52:43;;;;;;;4.95;2.10;;;18.10;44.90;;;;;;5050266;28;20036;-95
2021/03/29 11:55:10;;;;;;;4.20;2.00;;;18.20;44.70;;;;;;5031204;28;20091;-96
2021/03/29 11:57:44;;;;;;;4.35;2.20;;;18.40;45.00;;;;;;5042126;28;20025;-95
2021/03/29 12:00:19;;;;;;;6.05;2.25;;;18.50;44.30;;;;;;5062093;28;20048;-95
2021/03/29 12:03:09;;;;;;;4.45;2.50;;;18.50;43.70;;;;;;5041690;28;20053;-95
2021/03/29 12:05:37;;;;;;;5.15;2.00;;;18.60;43.50;;;;;;5034926;28;20052;-95
2021/03/29 12:08:12;;;;;;;4.55;2.08;;;18.70;43.60;;;;;;5036403;28;20029;-95
2021/03/29 12:13:24;;;;;;;4.70;2.13;;;19.00;43.00;;;;;;5055545;28;20036;-94
2021/03/29 12:15:53;;;;;;;4.90;1.95;;;19.10;41.10;;;;;;5026477;28;20034;-96
2021/03/29 12:18:34;;;;;;;2.45;1.83;;;19.00;41.00;;;;;;5031199;28;20018;-95
2021/03/29 12:21:25;;;;;;;7.20;2.85;;;19.10;41.40;;;;;;5028668;28;20034;-96
2021/03/29 12:23:57;;;;;;;6.32;2.80;;;19.20;40.30;;;;;;5041579;28;20116;-92
2021/03/29 12:26:30;;;;;;;4.78;2.45;;;19.30;39.90;;;;;;5040914;28;20037;-96
2021/03/29 12:28:58;;;;;;;4.28;2.25;;;19.40;39.60;;;;;;5033048;28;20048;-96
2021/03/29 12:31:23;;;;;;;8.45;2.83;;;19.40;39.50;;;;;;5044125;28;20081;-95
2021/03/29 12:33:50;;;;;;;4.70;2.38;;;19.40;38.70;;;;;;5041750;28;20052;-96
2021/03/29 12:36:17;;;;;;;6.07;2.40;;;19.50;39.00;;;;;;5040298;28;20025;-95
2021/03/29 12:38:55;;;;;;;3.17;1.65;;;19.60;38.70;;;;;;5043758;28;20024;-95
2021/03/29 12:41:25;;;;;;;6.43;2.28;;;19.70;39.10;;;;;;5050631;28;20025;-95
2021/03/29 12:44:02;;;;;;;3.65;1.90;;;19.80;38.50;;;;;;5317521;22;20523;-96
2021/03/29 12:51:43;;;;;;;5.05;2.35;;;20.00;36.80;;;;;;5022280;28;20037;-96
2021/03/29 12:54:20;;;;;;;5.25;2.22;;;20.00;36.70;;;;;;5023689;28;20032;-95
2021/03/29 12:56:48;;;;;;;4.20;2.40;;;20.10;37.30;;;;;;5028334;28;20022;-95
2021/03/29 12:59:14;;;;;;;5.13;2.20;;;20.30;36.90;;;;;;5040471;28;20036;-94
2021/03/29 13:01:48;;;;;;;2.65;1.70;;;20.20;37.30;;;;;;5022583;28;20025;-95
2021/03/29 13:04:29;;;;;;;4.57;2.50;;;20.40;38.00;;;;;;5011099;28;20104;-96
2021/03/29 13:09:54;;;;;;;4.78;2.55;;;20.70;36.90;;;;;;5030018;28;20232;-95
2021/03/29 13:12:22;;;;;;;4.95;2.22;;;20.80;36.50;;;;;;5021142;28;20097;-94
2021/03/29 13:15:01;;;;;;;5.30;2.50;;;20.90;37.20;;;;;;5019931;28;20036;-96
2021/03/29 13:17:47;;;;;;;5.70;2.60;;;20.90;36.10;;;;;;5026837;28;20030;-96
2021/03/29 13:20:16;;;;;;;2.63;1.80;;;20.90;35.70;;;;;;5012191;28;20025;-96
2021/03/29 13:22:44;;;;;;;6.45;2.85;;;21.00;36.20;;;;;;5024586;28;20116;-95
2021/03/29 13:25:11;;;;;;;5.35;2.17;;;21.00;35.40;;;;;;5021800;28;20029;-96
2021/03/29 13:27:36;;;;;;;4.45;2.13;;;20.90;35.10;;;;;;5023218;28;20026;-95
2021/03/29 13:30:23;;;;;;;4.47;2.28;;;21.00;35.30;;;;;;5029845;28;20060;-94
2021/03/29 13:32:57;;;;;;;5.55;2.50;;;21.00;34.80;;;;;;5021696;28;20040;-96
2021/03/29 13:35:24;;;;;;;4.07;2.55;;;21.00;34.50;;;;;;5016545;28;20054;-95
2021/03/29 13:37:50;;;;;;;5.68;2.67;;;21.00;34.30;;;;;;5014244;28;20504;-95
2021/03/29 13:40:18;;;;;;;4.63;2.50;;;20.90;34.20;;;;;;5014321;28;20022;-96
2021/03/29 13:42:44;;;;;;;4.43;2.50;;;21.00;34.30;;;;;;5024335;28;20014;-95
2021/03/29 13:45:11;;;;;;;6.55;2.88;;;21.10;34.00;;;;;;5014340;28;20026;-95
2021/03/29 13:47:37;;;;;;;4.60;2.17;;;21.10;34.10;;;;;;5021012;28;20029;-94
2021/03/29 13:50:05;;;;;;;4.45;1.95;;;21.30;33.90;;;;;;5024842;28;20029;-95
2021/03/29 13:52:32;;;;;;;5.53;2.60;;;21.30;33.20;;;;;;5019179;28;20037;-96
2021/03/29 13:54:58;;;;;;;4.70;2.33;;;21.20;33.30;;;;;;5015756;28;20051;-96
2021/03/29 13:57:23;;;;;;;4.85;2.05;;;21.30;33.60;;;;;;5019940;28;20031;-95
2021/03/29 13:59:49;;;;;;;4.75;2.78;;;21.50;34.00;;;;;;5030210;28;20022;-94
2021/03/29 14:02:15;;;;;;;5.90;2.60;;;21.60;33.90;;;;;;5034257;28;20026;-95
2021/03/29 14:04:44;;;;;;;4.15;2.63;;;21.60;33.80;;;;;;5027028;28;20094;-96
2021/03/29 14:07:10;;;;;;;5.40;3.08;;;21.60;34.10;;;;;;5010106;28;20038;-95
2021/03/29 14:09:36;;;;;;;4.07;2.10;;;21.60;34.30;;;;;;5031339;28;20026;-94
2021/03/29 14:12:07;;;;;;;4.65;2.47;;;21.60;34.30;;;;;;5020511;28;20026;-94
2021/03/29 14:14:34;;;;;;;5.90;2.33;;;21.70;34.10;;;;;;5007863;28;20100;-96
2021/03/29 14:17:00;;;;;;;3.28;2.00;;;21.70;34.10;;;;;;5013860;28;20035;-95
2021/03/29 14:19:37;;;;;;;5.05;2.38;;;21.80;34.10;;;;;;5020268;28;20064;-94
2021/03/29 14:22:03;;;;;;;3.75;2.25;;;21.80;33.40;;;;;;5011343;28;20065;-93
2021/03/29 14:24:29;;;;;;;3.75;2.22;;;21.80;33.40;;;;;;5023012;28;20031;-93
2021/03/29 14:26:54;;;;;;;3.42;1.98;;;21.90;33.40;;;;;;5026026;28;20037;-94
2021/03/29 14:29:28;;;;;;;5.13;2.53;;;21.80;33.50;;;;;;5022160;28;20095;-94
2021/03/29 14:31:54;;;;;;;3.83;2.13;;;22.00;33.50;;;;;;5020754;28;20063;-92
2021/03/29 14:34:22;;;;;;;2.97;2.00;;;21.90;33.70;;;;;;5025659;28;20021;-91
2021/03/29 14:39:47;;;;;;;4.88;2.17;;;22.00;33.50;;;;;;5022947;28;20045;-95
2021/03/29 14:42:20;;;;;;;4.35;1.98;;;22.10;33.80;;;;;;5012738;28;20037;-96
2021/03/29 14:44:45;;;;;;;4.78;2.50;;;22.00;33.20;;;;;;5014757;28;20030;-95
2021/03/29 14:47:12;;;;;;;2.83;2.00;;;22.00;33.20;;;;;;5016083;28;20066;-95
2021/03/29 14:49:39;;;;;;;5.30;2.50;;;21.90;33.30;;;;;;5029015;28;20014;-96
2021/03/29 14:52:08;;;;;;;4.18;2.03;;;22.00;33.10;;;;;;5020351;28;20036;-95
2021/03/29 14:54:36;;;;;;;4.65;2.55;;;21.90;33.30;;;;;;5030680;28;20021;-95
2021/03/29 14:57:03;;;;;;;7.68;2.60;;;21.90;33.30;;;;;;5014242;28;20030;-95
2021/03/29 14:59:28;;;;;;;5.18;2.40;;;21.80;33.40;;;;;;5019271;28;20579;-96
2021/03/29 15:01:58;;;;;;;3.97;2.10;;;21.70;33.00;;;;;;5020450;28;20050;-95
2021/03/29 15:04:26;;;;;;;4.35;2.20;;;21.70;33.00;;;;;;5013348;28;20045;-94
2021/03/29 15:09:38;;;;;;;4.57;2.10;;;21.70;33.30;;;;;;5022147;28;20069;-94
2021/03/29 15:12:05;;;;;;;5.97;2.60;;;21.70;33.00;;;;;;5018022;28;20036;-94
2021/03/29 15:14:31;;;;;;;4.28;2.35;;;21.50;32.70;;;;;;5012301;28;20037;-95
2021/03/29 15:17:13;;;;;;;4.75;2.50;;;21.40;32.90;;;;;;5024425;28;20034;-96
2021/03/29 15:19:40;;;;;;;3.85;2.10;;;21.40;33.30;;;;;;5012990;28;20030;-96
2021/03/29 15:22:07;;;;;;;3.10;1.80;;;21.40;33.50;;;;;;5000650;28;20030;-95
2021/03/29 15:24:34;;;;;;;5.43;2.42;;;21.30;33.40;;;;;;5013843;28;20022;-95
2021/03/29 15:27:00;;;;;;;4.38;2.20;;;21.30;32.60;;;;;;5003025;28;20421;-92
2021/03/29 15:29:29;;;;;;;5.75;2.03;;;21.20;32.30;;;;;;5002316;28;20141;-96
2021/03/29 15:31:56;;;;;;;3.17;1.90;;;21.20;32.50;;;;;;5013580;28;20026;-96
2021/03/29 15:34:23;;;;;;;3.30;2.28;;;21.10;32.00;;;;;;5012034;28;20022;-95
2021/03/29 15:36:48;;;;;;;3.53;1.80;;;21.00;31.50;;;;;;5024212;28;20117;-94
2021/03/29 15:39:14;;;;;;;3.83;1.70;;;21.00;31.90;;;;;;5011709;28;20107;-95
2021/03/29 15:41:42;;;;;;;4.57;2.10;;;21.00;32.10;;;;;;5011551;28;20014;-95
2021/03/29 15:44:08;;;;;;;6.28;2.25;;;20.90;31.70;;;;;;5012689;28;20029;-95
2021/03/29 15:46:34;;;;;;;4.03;2.30;;;20.90;31.60;;;;;;5011645;28;20072;-95
2021/03/29 15:49:00;;;;;;;4.43;2.20;;;20.80;31.20;;;;;;5014405;28;20034;-96
2021/03/29 15:51:25;;;;;;;6.30;2.63;;;20.80;30.20;;;;;;5020353;28;20026;-95
2021/03/29 15:53:51;;;;;;;4.55;2.20;;;20.70;30.10;;;;;;5004311;28;20118;-96
2021/03/29 15:56:17;;;;;;;4.18;2.03;;;20.60;30.50;;;;;;5015594;28;20060;-94
2021/03/29 15:58:44;;;;;;;5.07;2.40;;;20.60;30.90;;;;;;5019244;28;20077;-96
2021/03/29 16:01:13;;;;;;;3.33;2.22;;;20.50;30.60;;;;;;5023496;28;20013;-95
2021/03/29 16:03:41;;;;;;;2.90;1.80;;;20.50;31.00;;;;;;5037277;28;20025;-95
2021/03/29 16:06:08;;;;;;;4.13;2.00;;;20.50;31.10;;;;;;5041280;28;20017;-95
2021/03/29 16:08:35;;;;;;;3.38;2.00;;;20.40;30.80;;;;;;5037355;28;20030;-94
2021/03/29 16:11:01;;;;;;;3.95;1.85;;;20.30;31.10;;;;;;5035785;28;20018;-94
2021/03/29 16:13:26;;;;;;;4.63;2.03;;;20.30;31.40;;;;;;5027438;28;20102;-95
2021/03/29 16:15:52;;;;;;;3.20;1.88;;;20.30;31.40;;;;;;5028634;28;20104;-94
2021/03/29 16:18:18;;;;;;;3.28;1.90;;;20.30;31.50;;;;;;5015183;28;20096;-94
2021/03/29 16:20:45;;;;;;;4.47;2.40;;;20.30;31.50;;;;;;5023116;28;20484;-94
2021/03/29 16:23:11;;;;;;;4.10;2.08;;;20.30;31.60;;;;;;5016068;28;20037;-93
2021/03/29 16:25:40;;;;;;;3.58;2.00;;;20.30;31.70;;;;;;5031733;28;20034;-95
2021/03/29 16:28:06;;;;;;;4.18;1.70;;;20.30;31.70;;;;;;5013123;28;20081;-96
2021/03/29 16:30:33;;;;;;;3.33;1.98;;;20.30;32.00;;;;;;5009091;28;20018;-94
2021/03/29 16:32:59;;;;;;;4.85;1.98;;;20.30;32.20;;;;;;5015234;28;20092;-94
2021/03/29 16:35:26;;;;;;;3.70;2.17;;;20.30;32.20;;;;;;5027759;28;20014;-96
2021/03/29 16:37:51;;;;;;;4.95;2.25;;;20.20;32.00;;;;;;5013672;28;20033;-93
2021/03/29 16:40:17;;;;;;;4.85;1.65;;;20.20;32.10;;;;;;5008444;28;20018;-94
2021/03/29 16:42:43;;;;;;;5.10;2.33;;;20.20;32.50;;;;;;5012011;28;20060;-95
2021/03/29 16:45:09;;;;;;;6.40;2.38;;;20.10;32.50;;;;;;5014642;28;20014;-96
2021/03/29 16:47:35;;;;;;;2.33;2.00;;;20.10;32.50;;;;;;5014945;28;20033;-96
2021/03/29 16:50:01;;;;;;;5.28;2.20;;;20.00;32.40;;;;;;5012424;28;20033;-96
2021/03/29 16:52:26;;;;;;;2.45;1.70;;;20.00;32.30;;;;;;5013115;28;20069;-95
2021/03/29 16:54:52;;;;;;;2.08;1.38;;;20.00;32.90;;;;;;5011514;28;20037;-95
2021/03/29 16:57:20;;;;;;;3.17;2.03;;;19.90;33.00;;;;;;5016341;28;20029;-95
2021/03/29 16:59:46;;;;;;;3.42;2.03;;;19.90;33.00;;;;;;5013654;28;20036;-95
2021/03/29 17:02:13;;;;;;;4.88;2.20;;;19.90;33.30;;;;;;5014756;28;20018;-94
2021/03/29 17:04:39;;;;;;;3.53;2.00;;;19.90;33.50;;;;;;5008349;28;20061;-94
2021/03/29 17:07:05;;;;;;;5.90;2.25;;;19.80;33.50;;;;;;5026083;28;20132;-95
2021/03/29 17:09:30;;;;;;;4.43;1.70;;;19.80;33.40;;;;;;5032635;28;20036;-95
2021/03/29 17:11:56;;;;;;;3.13;2.10;;;19.80;33.90;;;;;;5032866;28;20033;-94
2021/03/29 17:14:22;;;;;;;1.73;1.30;;;19.70;34.00;;;;;;5016342;28;20018;-95
2021/03/29 17:16:51;;;;;;;3.90;1.67;;;19.70;34.30;;;;;;5021818;28;20101;-96
2021/03/29 17:19:17;;;;;;;4.22;2.20;;;19.70;34.30;;;;;;5014647;28;20041;-94
2021/03/29 17:21:42;;;;;;;3.63;2.10;;;19.60;34.30;;;;;;5031922;28;20044;-94
2021/03/29 17:24:08;;;;;;;5.10;2.10;;;19.50;34.40;;;;;;5012652;28;20033;-92
2021/03/29 17:26:35;;;;;;;2.53;1.73;;;19.50;34.80;;;;;;5015947;28;20045;-91
2021/03/29 17:29:01;;;;;;;2.78;1.50;;;19.40;35.00;;;;;;5017666;28;20045;-93
2021/03/29 17:31:27;;;;;;;4.50;1.98;;;19.40;35.20;;;;;;5013282;28;20036;-92
2021/03/29 17:33:57;;;;;;;5.85;1.83;;;19.30;35.40;;;;;;5012575;28;20018;-92
2021/03/29 17:36:22;;;;;;;2.10;1.50;;;19.30;35.50;;;;;;5004184;28;20432;-92
2021/03/29 17:38:48;;;;;;;1.67;1.00;;;19.30;35.80;;;;;;5014029;28;20022;-92